Time;durP1;ratioP1;P1;durP2;ratioP2;P2;SDS_P1;SDS_P2;PMS_P1;PMS_P2;Temp;Humidity;BMP_temperature;BMP_pressure;BME280_temperature;BME280_humidity;BME280_pressure;Samples;Min_cycle;Max_cycle;Signal;HPM_P1;HPM_P2
2023/08/07 00:00:33;;;;;;;7.40;2.70;;;;;;;;;;5016764;28;20241;-75
2023/08/07 00:02:59;;;;;;;9.33;2.70;;;;;;;;;;5031821;28;20172;-75
2023/08/07 00:05:25;;;;;;;7.73;2.40;;;;;;;;;;5035982;28;20184;-75
2023/08/07 00:07:51;;;;;;;8.57;2.43;;;;;;;;;;5032777;28;20204;-79
2023/08/07 00:10:17;;;;;;;6.03;1.90;;;;;;;;;;5016827;28;20184;-80
2023/08/07 00:12:44;;;;;;;6.20;1.93;;;;;;;;;;5016800;28;20263;-79
2023/08/07 00:15:11;;;;;;;4.53;1.90;;;;;;;;;;5021528;28;20180;-79
2023/08/07 00:17:37;;;;;;;5.40;1.80;;;;;;;;;;5019812;28;20215;-79
2023/08/07 00:20:03;;;;;;;4.87;1.90;;;;;;;;;;5036250;28;20219;-79
2023/08/07 00:22:29;;;;;;;5.83;1.90;;;;;;;;;;5049077;22;20250;-75
2023/08/07 00:24:55;;;;;;;5.27;1.80;;;;;;;;;;5045561;28;20184;-75
2023/08/07 00:27:21;;;;;;;5.37;1.90;;;;;;;;;;5044898;28;20180;-75
2023/08/07 00:29:47;;;;;;;6.20;2.00;;;;;;;;;;5052660;28;20176;-74
2023/08/07 00:32:13;;;;;;;3.87;1.63;;;;;;;;;;5051706;28;20247;-74
2023/08/07 00:34:39;;;;;;;4.10;1.73;;;;;;;;;;5035711;28;20195;-75
2023/08/07 00:37:05;;;;;;;5.60;1.87;;;;;;;;;;5035340;28;20207;-75
2023/08/07 00:39:31;;;;;;;3.80;1.57;;;;;;;;;;5051899;28;20555;-75
2023/08/07 00:41:57;;;;;;;4.17;1.80;;;;;;;;;;5052134;28;20179;-75
2023/08/07 00:44:23;;;;;;;4.53;1.80;;;;;;;;;;5023364;28;20193;-75
2023/08/07 00:46:50;;;;;;;7.27;1.70;;;;;;;;;;5050673;28;20188;-75
2023/08/07 00:49:17;;;;;;;3.97;1.60;;;;;;;;;;5051985;28;20187;-75
2023/08/07 00:51:44;;;;;;;3.60;1.73;;;;;;;;;;5051666;28;20180;-75
2023/08/07 00:54:11;;;;;;;5.73;1.80;;;;;;;;;;5035556;28;20188;-75
2023/08/07 00:56:37;;;;;;;5.43;1.83;;;;;;;;;;5052571;28;20207;-75
2023/08/07 00:59:03;;;;;;;6.57;2.00;;;;;;;;;;5053827;28;20172;-79
2023/08/07 01:01:29;;;;;;;4.63;1.97;;;;;;;;;;5035590;28;20180;-78
2023/08/07 01:03:55;;;;;;;3.40;1.60;;;;;;;;;;5036216;28;20180;-79
2023/08/07 01:06:21;;;;;;;5.17;1.80;;;;;;;;;;5051901;28;20184;-78
2023/08/07 01:08:48;;;;;;;5.53;2.00;;;;;;;;;;5035677;28;20184;-79
2023/08/07 01:11:34;;;;;;;5.60;2.07;;;;;;;;;;5055672;28;20180;-79
2023/08/07 01:14:19;;;;;;;8.63;2.57;;;;;;;;;;5035547;28;20191;-79
2023/08/07 01:16:51;;;;;;;7.13;2.50;;;;;;;;;;5046408;28;20200;-75
2023/08/07 01:19:27;;;;;;;10.67;2.87;;;;;;;;;;5056493;28;20184;-76
2023/08/07 01:22:11;;;;;;;9.27;2.50;;;;;;;;;;5055883;28;20222;-75
2023/08/07 01:24:38;;;;;;;10.50;2.70;;;;;;;;;;5055678;28;20225;-76
2023/08/07 01:27:08;;;;;;;8.97;2.57;;;;;;;;;;5039036;28;20215;-76
2023/08/07 01:29:38;;;;;;;13.73;3.00;;;;;;;;;;5055484;28;20184;-76
2023/08/07 01:32:06;;;;;;;10.43;2.60;;;;;;;;;;5050201;28;20278;-79
2023/08/07 01:34:32;;;;;;;8.70;2.70;;;;;;;;;;5055532;28;20184;-79
2023/08/07 01:36:58;;;;;;;10.87;2.83;;;;;;;;;;5039174;28;20211;-79
2023/08/07 01:39:25;;;;;;;10.23;3.10;;;;;;;;;;5038466;28;20183;-79
2023/08/07 01:41:51;;;;;;;12.20;3.17;;;;;;;;;;5055053;28;20176;-79
2023/08/07 01:44:17;;;;;;;12.20;3.20;;;;;;;;;;5055007;28;20233;-79
2023/08/07 01:46:43;;;;;;;12.83;3.00;;;;;;;;;;5038768;28;20271;-79
2023/08/07 01:49:09;;;;;;;15.87;3.50;;;;;;;;;;5055168;28;20176;-75
2023/08/07 01:51:35;;;;;;;9.53;3.13;;;;;;;;;;5038604;28;20210;-75
2023/08/07 01:54:01;;;;;;;15.00;3.20;;;;;;;;;;5038366;28;20231;-75
2023/08/07 01:56:27;;;;;;;10.07;3.33;;;;;;;;;;5038063;28;20208;-75
2023/08/07 01:58:53;;;;;;;14.37;3.40;;;;;;;;;;5038280;28;20187;-75
2023/08/07 02:01:19;;;;;;;14.77;3.60;;;;;;;;;;5038312;28;20225;-75
2023/08/07 02:03:45;;;;;;;10.43;3.10;;;;;;;;;;5038296;28;20183;-75
2023/08/07 02:06:11;;;;;;;12.63;3.40;;;;;;;;;;5038242;28;20188;-74
2023/08/07 02:08:37;;;;;;;13.53;3.73;;;;;;;;;;5054728;28;20212;-74
2023/08/07 02:11:03;;;;;;;16.97;3.90;;;;;;;;;;5038586;28;20218;-74
2023/08/07 02:13:29;;;;;;;14.23;3.63;;;;;;;;;;5055881;28;20186;-74
2023/08/07 02:15:55;;;;;;;13.53;3.70;;;;;;;;;;5038157;28;20212;-75
2023/08/07 02:18:21;;;;;;;15.93;3.90;;;;;;;;;;5037930;28;20176;-75
2023/08/07 02:20:47;;;;;;;14.80;3.77;;;;;;;;;;5038226;28;20234;-74
2023/08/07 02:23:13;;;;;;;16.07;4.17;;;;;;;;;;5037630;28;20258;-75
2023/08/07 02:25:39;;;;;;;12.73;3.80;;;;;;;;;;5054255;28;20187;-75
2023/08/07 02:28:05;;;;;;;18.97;4.53;;;;;;;;;;5054242;28;20180;-74
2023/08/07 02:30:31;;;;;;;17.40;4.63;;;;;;;;;;5054240;28;20180;-74
2023/08/07 02:32:57;;;;;;;15.50;4.03;;;;;;;;;;5054071;28;20267;-74
2023/08/07 02:35:26;;;;;;;21.53;4.50;;;;;;;;;;5037615;28;20277;-75
2023/08/07 02:37:52;;;;;;;16.63;3.93;;;;;;;;;;5053854;28;20203;-75
2023/08/07 02:40:19;;;;;;;17.10;4.63;;;;;;;;;;5038210;28;20175;-76
2023/08/07 02:42:45;;;;;;;15.07;4.33;;;;;;;;;;5054308;28;20180;-79
2023/08/07 02:45:11;;;;;;;13.80;4.80;;;;;;;;;;5021530;28;20188;-79
2023/08/07 02:47:37;;;;;;;13.30;4.30;;;;;;;;;;5034503;28;20204;-75
2023/08/07 02:50:03;;;;;;;14.37;4.37;;;;;;;;;;5017697;28;20188;-75
2023/08/07 02:52:29;;;;;;;15.47;4.13;;;;;;;;;;5033519;28;20188;-75
2023/08/07 02:54:55;;;;;;;13.90;4.13;;;;;;;;;;5053859;28;20279;-75
2023/08/07 02:57:21;;;;;;;12.40;3.87;;;;;;;;;;5053821;28;20261;-75
2023/08/07 02:59:47;;;;;;;10.73;3.70;;;;;;;;;;5037626;28;20184;-75
2023/08/07 03:02:13;;;;;;;14.87;4.30;;;;;;;;;;5036498;28;20176;-75
2023/08/07 03:04:39;;;;;;;15.03;4.73;;;;;;;;;;5036379;28;20194;-74
2023/08/07 03:07:05;;;;;;;12.87;4.87;;;;;;;;;;5053047;28;20191;-74
2023/08/07 03:09:31;;;;;;;11.37;5.00;;;;;;;;;;5045112;28;20184;-74
2023/08/07 03:12:03;;;;;;;19.57;5.40;;;;;;;;;;5025502;28;20207;-75
2023/08/07 03:14:29;;;;;;;15.43;5.03;;;;;;;;;;5027242;28;20183;-75
2023/08/07 03:16:55;;;;;;;9.00;4.77;;;;;;;;;;5028806;28;20207;-75
2023/08/07 03:19:21;;;;;;;13.80;5.10;;;;;;;;;;5025452;28;20244;-75
2023/08/07 03:21:47;;;;;;;14.23;5.00;;;;;;;;;;5027913;28;20275;-75
2023/08/07 03:24:13;;;;;;;14.03;4.73;;;;;;;;;;5043057;28;20303;-75
2023/08/07 03:26:40;;;;;;;15.43;5.20;;;;;;;;;;5041333;28;20195;-75
2023/08/07 03:29:06;;;;;;;15.80;5.17;;;;;;;;;;5027976;28;20187;-74
2023/08/07 03:31:33;;;;;;;10.43;4.17;;;;;;;;;;5049220;28;20183;-74
2023/08/07 03:33:58;;;;;;;12.73;4.43;;;;;;;;;;5052734;28;20195;-74
2023/08/07 03:36:24;;;;;;;12.97;4.50;;;;;;;;;;5031726;28;20199;-74
2023/08/07 03:38:50;;;;;;;12.80;4.03;;;;;;;;;;5026162;28;20216;-75
2023/08/07 03:41:16;;;;;;;10.13;4.20;;;;;;;;;;5026109;28;20206;-74
2023/08/07 03:43:42;;;;;;;13.50;4.03;;;;;;;;;;5027340;28;20176;-75
2023/08/07 03:46:08;;;;;;;12.93;4.17;;;;;;;;;;5026667;28;20187;-76
2023/08/07 03:48:35;;;;;;;13.53;4.20;;;;;;;;;;5026486;28;20207;-75
2023/08/07 03:51:05;;;;;;;14.60;4.57;;;;;;;;;;5041434;28;20275;-75
2023/08/07 03:53:31;;;;;;;11.50;3.83;;;;;;;;;;5042131;28;20184;-75
2023/08/07 03:55:57;;;;;;;14.13;3.90;;;;;;;;;;5044059;28;20208;-75
2023/08/07 03:58:23;;;;;;;13.73;3.93;;;;;;;;;;5024859;28;20177;-75
2023/08/07 04:00:51;;;;;;;12.13;4.13;;;;;;;;;;5042774;28;20184;-75
2023/08/07 04:03:17;;;;;;;15.30;4.30;;;;;;;;;;5042787;28;20208;-74
2023/08/07 04:05:43;;;;;;;12.10;4.03;;;;;;;;;;5024866;28;20208;-74
2023/08/07 04:08:09;;;;;;;13.50;3.93;;;;;;;;;;5044459;28;20227;-75
2023/08/07 04:10:34;;;;;;;13.00;4.30;;;;;;;;;;5025544;28;20200;-75
2023/08/07 04:13:01;;;;;;;9.97;4.03;;;;;;;;;;5027019;28;20204;-75
2023/08/07 04:15:27;;;;;;;10.97;3.80;;;;;;;;;;5047007;28;20184;-75
2023/08/07 04:17:53;;;;;;;11.07;3.80;;;;;;;;;;5036074;28;20207;-75
2023/08/07 04:20:20;;;;;;;10.20;3.33;;;;;;;;;;5034733;28;20180;-76
2023/08/07 04:22:46;;;;;;;13.53;3.60;;;;;;;;;;5035829;28;20212;-75
2023/08/07 04:25:12;;;;;;;9.17;3.33;;;;;;;;;;5035572;28;20227;-75
2023/08/07 04:27:38;;;;;;;7.70;3.37;;;;;;;;;;5029327;28;20189;-74
2023/08/07 04:30:05;;;;;;;7.23;3.20;;;;;;;;;;5047536;28;20180;-74
2023/08/07 04:32:31;;;;;;;8.83;3.30;;;;;;;;;;5036071;28;20184;-79
2023/08/07 04:34:57;;;;;;;11.13;3.23;;;;;;;;;;5036030;28;20180;-74
2023/08/07 04:37:23;;;;;;;8.40;2.73;;;;;;;;;;5052134;28;20242;-74
2023/08/07 04:39:49;;;;;;;12.27;3.50;;;;;;;;;;5036169;28;20184;-75
2023/08/07 04:42:15;;;;;;;5.40;3.20;;;;;;;;;;5053760;28;20184;-75
2023/08/07 04:44:41;;;;;;;9.37;3.30;;;;;;;;;;5036698;28;20172;-75
2023/08/07 04:47:07;;;;;;;8.40;3.50;;;;;;;;;;5039506;28;20188;-75
2023/08/07 04:49:33;;;;;;;8.33;3.20;;;;;;;;;;5039472;28;20229;-76
2023/08/07 04:51:59;;;;;;;7.77;3.03;;;;;;;;;;5055510;28;20199;-75
2023/08/07 04:54:25;;;;;;;10.53;3.20;;;;;;;;;;5055457;28;20187;-76
2023/08/07 04:56:51;;;;;;;8.87;2.93;;;;;;;;;;5055683;28;20212;-75
2023/08/07 04:59:17;;;;;;;5.23;2.67;;;;;;;;;;5055778;28;20172;-75
2023/08/07 05:01:43;;;;;;;9.63;3.30;;;;;;;;;;5055461;28;20247;-75
2023/08/07 05:04:09;;;;;;;9.83;3.40;;;;;;;;;;5038573;28;20176;-75
2023/08/07 05:06:35;;;;;;;7.90;3.20;;;;;;;;;;5052014;28;20196;-75
2023/08/07 05:09:03;;;;;;;8.43;3.27;;;;;;;;;;5019733;28;20234;-75
2023/08/07 05:11:29;;;;;;;8.87;3.50;;;;;;;;;;5036149;28;20183;-75
2023/08/07 05:13:55;;;;;;;15.40;3.80;;;;;;;;;;5028005;28;20207;-75
2023/08/07 05:16:21;;;;;;;9.27;3.90;;;;;;;;;;5055734;28;20212;-75
2023/08/07 05:18:47;;;;;;;11.93;3.80;;;;;;;;;;5056874;28;20184;-75
2023/08/07 05:21:13;;;;;;;15.27;4.23;;;;;;;;;;5055913;28;20180;-75
2023/08/07 05:23:39;;;;;;;14.07;4.30;;;;;;;;;;5055287;28;20228;-75
2023/08/07 05:26:05;;;;;;;11.37;4.10;;;;;;;;;;5055462;28;20195;-79
2023/08/07 05:28:31;;;;;;;11.40;4.17;;;;;;;;;;5038806;28;20188;-79
2023/08/07 05:30:57;;;;;;;14.57;4.40;;;;;;;;;;5039138;28;20184;-79
2023/08/07 05:33:23;;;;;;;12.43;4.07;;;;;;;;;;5054973;28;20191;-79
2023/08/07 05:35:50;;;;;;;15.63;4.50;;;;;;;;;;5055070;28;20187;-79
2023/08/07 05:38:15;;;;;;;13.33;4.10;;;;;;;;;;5055188;28;20238;-79
2023/08/07 05:40:41;;;;;;;13.50;4.30;;;;;;;;;;5055602;28;20176;-79
2023/08/07 05:43:08;;;;;;;12.83;4.77;;;;;;;;;;5056049;28;20176;-75
2023/08/07 05:45:34;;;;;;;11.57;4.60;;;;;;;;;;5054706;28;20184;-75
2023/08/07 05:48:00;;;;;;;10.57;4.10;;;;;;;;;;5055093;28;20191;-75
2023/08/07 05:50:26;;;;;;;16.60;5.07;;;;;;;;;;5054841;28;20188;-75
2023/08/07 05:52:52;;;;;;;17.97;4.77;;;;;;;;;;5054909;28;20338;-75
2023/08/07 05:55:18;;;;;;;15.13;4.50;;;;;;;;;;5054531;28;20180;-75
2023/08/07 05:57:44;;;;;;;16.30;4.67;;;;;;;;;;5055953;28;20208;-75
2023/08/07 06:00:16;;;;;;;16.70;4.83;;;;;;;;;;5054723;28;20184;-75
2023/08/07 06:02:42;;;;;;;14.37;4.60;;;;;;;;;;5054648;28;20180;-75
2023/08/07 06:05:09;;;;;;;18.90;5.13;;;;;;;;;;5054854;28;20188;-75
2023/08/07 06:07:35;;;;;;;17.90;4.57;;;;;;;;;;5055667;28;20176;-75
2023/08/07 06:10:01;;;;;;;16.70;4.97;;;;;;;;;;5070979;28;20180;-75
2023/08/07 06:12:27;;;;;;;15.40;4.73;;;;;;;;;;5071284;28;20179;-76
2023/08/07 06:14:54;;;;;;;21.83;4.93;;;;;;;;;;5054215;28;20188;-75
2023/08/07 06:17:20;;;;;;;17.63;5.03;;;;;;;;;;5054378;28;20211;-76
2023/08/07 06:19:46;;;;;;;16.20;4.70;;;;;;;;;;5054395;28;20237;-75
2023/08/07 06:22:12;;;;;;;18.43;4.50;;;;;;;;;;5054294;28;20219;-75
2023/08/07 06:24:38;;;;;;;13.30;4.40;;;;;;;;;;5070848;28;20228;-75
2023/08/07 06:27:04;;;;;;;16.60;4.53;;;;;;;;;;5070864;28;20305;-75
2023/08/07 06:29:30;;;;;;;13.03;4.77;;;;;;;;;;5054122;28;20188;-75
2023/08/07 06:31:56;;;;;;;11.83;4.40;;;;;;;;;;5052880;28;20200;-78
2023/08/07 06:34:22;;;;;;;15.67;4.87;;;;;;;;;;5054639;28;20259;-78
2023/08/07 06:36:48;;;;;;;17.23;4.27;;;;;;;;;;5054267;28;20207;-79
2023/08/07 06:39:14;;;;;;;13.27;4.40;;;;;;;;;;5050457;28;20267;-79
2023/08/07 06:41:40;;;;;;;12.90;4.50;;;;;;;;;;5040629;28;20207;-78
2023/08/07 06:44:06;;;;;;;12.80;4.40;;;;;;;;;;5032855;28;20181;-75
2023/08/07 06:46:32;;;;;;;12.10;4.10;;;;;;;;;;5041599;28;20188;-75
2023/08/07 06:48:58;;;;;;;12.13;4.27;;;;;;;;;;5042450;28;20191;-75
2023/08/07 06:51:24;;;;;;;17.77;4.67;;;;;;;;;;5045459;28;20274;-75
2023/08/07 06:53:50;;;;;;;17.00;4.63;;;;;;;;;;5049991;28;20203;-75
2023/08/07 06:56:16;;;;;;;13.20;4.37;;;;;;;;;;5039463;28;20215;-75
2023/08/07 06:58:42;;;;;;;15.50;4.43;;;;;;;;;;5027621;28;20191;-75
2023/08/07 07:01:08;;;;;;;14.10;4.37;;;;;;;;;;5030163;28;20243;-75
2023/08/07 07:03:34;;;;;;;12.77;4.50;;;;;;;;;;5044632;28;20279;-75
2023/08/07 07:06:00;;;;;;;13.43;4.67;;;;;;;;;;5050709;28;20180;-75
2023/08/07 07:08:26;;;;;;;14.90;4.33;;;;;;;;;;5023567;28;20177;-75
2023/08/07 07:10:52;;;;;;;15.40;4.67;;;;;;;;;;5035723;28;20180;-75
2023/08/07 07:13:18;;;;;;;15.73;4.60;;;;;;;;;;5041201;28;20191;-75
2023/08/07 07:15:44;;;;;;;14.47;4.90;;;;;;;;;;5036682;28;20188;-75
2023/08/07 07:18:10;;;;;;;17.10;4.57;;;;;;;;;;5043915;28;20189;-75
2023/08/07 07:20:36;;;;;;;12.67;4.33;;;;;;;;;;5052865;28;20184;-75
2023/08/07 07:23:02;;;;;;;15.53;4.47;;;;;;;;;;5053557;28;20180;-75
2023/08/07 07:25:28;;;;;;;16.10;4.50;;;;;;;;;;5031532;28;20241;-75
2023/08/07 07:27:54;;;;;;;15.37;4.37;;;;;;;;;;5028782;28;20176;-74
2023/08/07 07:30:21;;;;;;;16.27;4.57;;;;;;;;;;5027741;28;20176;-75
2023/08/07 07:32:47;;;;;;;15.53;4.50;;;;;;;;;;5021744;28;20318;-75
2023/08/07 07:35:13;;;;;;;12.40;4.13;;;;;;;;;;5049003;28;20304;-75
2023/08/07 07:37:39;;;;;;;14.53;4.20;;;;;;;;;;5031586;28;20219;-75
2023/08/07 07:40:05;;;;;;;17.60;4.40;;;;;;;;;;5044503;28;20180;-75
2023/08/07 07:42:31;;;;;;;14.70;4.07;;;;;;;;;;5045633;28;20184;-74
2023/08/07 07:44:58;;;;;;;16.43;4.17;;;;;;;;;;5052799;28;20171;-75
2023/08/07 07:47:24;;;;;;;11.83;4.33;;;;;;;;;;5052692;28;20191;-74
2023/08/07 07:50:04;;;;;;;16.60;4.30;;;;;;;;;;5052728;28;20180;-75
2023/08/07 07:52:30;;;;;;;13.83;4.20;;;;;;;;;;5043394;28;20183;-74
2023/08/07 07:54:56;;;;;;;15.90;4.47;;;;;;;;;;5043196;28;20275;-75
2023/08/07 07:57:22;;;;;;;13.97;4.57;;;;;;;;;;5024973;28;20350;-75
2023/08/07 07:59:48;;;;;;;12.53;4.37;;;;;;;;;;5043060;28;20183;-75
2023/08/07 08:02:15;;;;;;;16.43;4.67;;;;;;;;;;5043170;28;20173;-75
2023/08/07 08:04:42;;;;;;;14.93;4.23;;;;;;;;;;5041677;28;20176;-75
2023/08/07 08:07:08;;;;;;;16.37;4.27;;;;;;;;;;5028226;28;20192;-75
2023/08/07 08:09:34;;;;;;;14.03;4.37;;;;;;;;;;5034566;28;20188;-75
2023/08/07 08:12:00;;;;;;;16.47;4.37;;;;;;;;;;5016977;28;20190;-76
2023/08/07 08:14:26;;;;;;;19.00;5.63;;;;;;;;;;5032910;28;20234;-76
2023/08/07 08:16:52;;;;;;;18.70;5.47;;;;;;;;;;5032964;28;20239;-75
2023/08/07 08:19:18;;;;;;;9.63;4.37;;;;;;;;;;5019101;28;20250;-75
2023/08/07 08:21:44;;;;;;;13.00;4.20;;;;;;;;;;5036855;28;20180;-75
2023/08/07 08:24:10;;;;;;;12.33;4.70;;;;;;;;;;5036671;28;20221;-75
2023/08/07 08:26:36;;;;;;;8.67;3.83;;;;;;;;;;5036778;28;20218;-75
2023/08/07 08:29:02;;;;;;;11.20;4.50;;;;;;;;;;5036985;28;20191;-75
2023/08/07 08:31:28;;;;;;;11.07;3.90;;;;;;;;;;5020125;28;20196;-75
2023/08/07 08:33:54;;;;;;;12.90;4.30;;;;;;;;;;5020321;28;20184;-75
2023/08/07 08:36:20;;;;;;;12.47;4.00;;;;;;;;;;5020477;28;20212;-75
2023/08/07 08:38:48;;;;;;;10.33;3.80;;;;;;;;;;5036422;28;20183;-75
2023/08/07 08:41:14;;;;;;;12.50;3.93;;;;;;;;;;5037731;28;20173;-75
2023/08/07 08:43:41;;;;;;;11.17;4.07;;;;;;;;;;5036619;28;20187;-75
2023/08/07 08:46:09;;;;;;;9.90;3.90;;;;;;;;;;5036465;28;20223;-76
2023/08/07 08:48:36;;;;;;;10.17;3.67;;;;;;;;;;5052057;28;20184;-76
2023/08/07 08:51:03;;;;;;;10.52;4.03;;;;;;;;;;5039652;28;20426;-76
2023/08/07 08:53:29;;;;;;;9.27;3.10;;;;;;;;;;5056124;28;20175;-76
2023/08/07 08:55:55;;;;;;;13.00;4.10;;;;;;;;;;5039588;28;20242;-76
2023/08/07 08:58:21;;;;;;;14.07;3.47;;;;;;;;;;5056614;28;20176;-76
2023/08/07 09:00:48;;;;;;;10.00;4.10;;;;;;;;;;5057092;28;20172;-76
2023/08/07 09:03:14;;;;;;;14.03;4.00;;;;;;;;;;5054254;28;20184;-76
2023/08/07 09:05:40;;;;;;;11.67;3.70;;;;;;;;;;5055681;28;20175;-76
2023/08/07 09:08:07;;;;;;;11.07;3.80;;;;;;;;;;5055986;28;20187;-75
2023/08/07 09:10:33;;;;;;;16.33;4.17;;;;;;;;;;5039278;28;20191;-75
2023/08/07 09:13:05;;;;;;;9.20;3.70;;;;;;;;;;5052078;28;20267;-75
2023/08/07 09:15:31;;;;;;;15.03;4.30;;;;;;;;;;5057123;28;20186;-75
2023/08/07 09:17:58;;;;;;;12.60;4.20;;;;;;;;;;5056207;28;20271;-76
2023/08/07 09:20:25;;;;;;;10.87;4.17;;;;;;;;;;5056125;28;20198;-76
2023/08/07 09:22:51;;;;;;;9.67;3.67;;;;;;;;;;5055650;28;20182;-76
2023/08/07 09:25:27;;;;;;;9.17;3.63;;;;;;;;;;5055886;28;20233;-76
2023/08/07 09:27:55;;;;;;;12.27;3.87;;;;;;;;;;5056873;28;20172;-76
2023/08/07 09:30:21;;;;;;;12.47;3.73;;;;;;;;;;5054789;28;20180;-76
2023/08/07 09:32:50;;;;;;;10.37;3.43;;;;;;;;;;5055471;28;20183;-76
2023/08/07 09:35:21;;;;;;;10.73;3.30;;;;;;;;;;5055517;28;20240;-75
2023/08/07 09:37:47;;;;;;;9.60;3.40;;;;;;;;;;5056621;28;20203;-75
2023/08/07 09:40:15;;;;;;;10.50;3.47;;;;;;;;;;5039166;28;20176;-75
2023/08/07 09:42:41;;;;;;;11.57;4.10;;;;;;;;;;5055010;28;20457;-75
2023/08/07 09:45:26;;;;;;;14.77;4.23;;;;;;;;;;5056379;28;20172;-76
2023/08/07 09:48:02;;;;;;;10.67;3.80;;;;;;;;;;5023414;28;20188;-75
2023/08/07 09:50:29;;;;;;;12.13;3.85;;;;;;;;;;5035088;28;20414;-75
2023/08/07 09:52:55;;;;;;;10.93;3.93;;;;;;;;;;5034915;28;20414;-75
2023/08/07 09:55:22;;;;;;;13.00;4.25;;;;;;;;;;5018093;28;20418;-75
2023/08/07 09:57:48;;;;;;;9.15;3.72;;;;;;;;;;5035905;28;20436;-75
2023/08/07 10:00:15;;;;;;;7.90;3.50;;;;;;;;;;5035647;28;20484;-76
2023/08/07 10:02:42;;;;;;;9.73;3.20;;;;;;;;;;5018132;28;20409;-76
2023/08/07 10:05:09;;;;;;;11.53;3.17;;;;;;;;;;5053657;28;20186;-76
2023/08/07 10:07:36;;;;;;;6.93;3.20;;;;;;;;;;5054544;28;20172;-76
2023/08/07 10:10:03;;;;;;;13.47;3.43;;;;;;;;;;5056107;28;20229;-75
2023/08/07 10:12:29;;;;;;;6.80;2.43;;;;;;;;;;5054968;28;20176;-76
2023/08/07 10:14:55;;;;;;;9.63;3.50;;;;;;;;;;5054841;28;20412;-77
2023/08/07 10:17:22;;;;;;;9.50;3.13;;;;;;;;;;5055122;28;20199;-77
2023/08/07 10:19:49;;;;;;;8.20;3.03;;;;;;;;;;5054881;28;20185;-76
2023/08/07 10:22:26;;;;;;;10.43;3.35;;;;;;;;;;5045946;28;20414;-76
2023/08/07 10:24:53;;;;;;;8.88;3.40;;;;;;;;;;5034681;28;20457;-77
2023/08/07 10:27:20;;;;;;;11.32;2.95;;;;;;;;;;5034526;28;20071;-77
2023/08/07 10:29:48;;;;;;;8.83;3.20;;;;;;;;;;5035517;28;20504;-76
2023/08/07 10:32:15;;;;;;;11.37;3.17;;;;;;;;;;5034522;28;20418;-76
2023/08/07 10:34:42;;;;;;;9.07;3.13;;;;;;;;;;5034741;28;20252;-76
2023/08/07 10:37:09;;;;;;;10.60;3.27;;;;;;;;;;5035105;28;20208;-76
2023/08/07 10:39:35;;;;;;;10.75;3.45;;;;;;;;;;5034906;28;20412;-76
2023/08/07 10:42:01;;;;;;;10.67;3.40;;;;;;;;;;5018127;28;20173;-80
2023/08/07 10:44:32;;;;;;;6.88;2.97;;;;;;;;;;5034261;28;20409;-80
2023/08/07 10:46:58;;;;;;;10.93;3.23;;;;;;;;;;5018298;28;20185;-80
2023/08/07 10:49:38;;;;;;;9.40;3.28;;;;;;;;;;5033722;28;20461;-80
2023/08/07 10:52:17;;;;;;;12.98;3.55;;;;;;;;;;5017047;28;20448;-80
2023/08/07 10:54:47;;;;;;;7.90;3.10;;;;;;;;;;5035332;28;20176;-80
2023/08/07 10:57:14;;;;;;;10.65;3.70;;;;;;;;;;5034486;28;20430;-80
2023/08/07 10:59:50;;;;;;;7.90;2.83;;;;;;;;;;5033897;28;20197;-76
2023/08/07 11:02:24;;;;;;;9.10;3.37;;;;;;;;;;5033119;28;20405;-75
2023/08/07 11:04:50;;;;;;;10.13;3.20;;;;;;;;;;5034377;28;20176;-75
2023/08/07 11:07:26;;;;;;;11.48;3.35;;;;;;;;;;5020089;28;20459;-76
2023/08/07 11:09:53;;;;;;;10.32;3.58;;;;;;;;;;5016836;28;20414;-76
2023/08/07 11:12:20;;;;;;;12.68;3.58;;;;;;;;;;5033802;28;20493;-75
2023/08/07 11:14:46;;;;;;;10.20;3.40;;;;;;;;;;5034105;28;20484;-80
2023/08/07 11:17:12;;;;;;;9.90;3.30;;;;;;;;;;5034688;28;20279;-80
2023/08/07 11:19:39;;;;;;;7.38;3.13;;;;;;;;;;5034361;28;20448;-80
2023/08/07 11:22:05;;;;;;;6.70;2.70;;;;;;;;;;5017815;28;20207;-80
2023/08/07 11:24:31;;;;;;;8.00;2.90;;;;;;;;;;5033754;28;20319;-80
2023/08/07 11:26:58;;;;;;;6.63;2.60;;;;;;;;;;5033821;28;20263;-80
2023/08/07 11:29:24;;;;;;;7.95;2.90;;;;;;;;;;5034310;28;20471;-80
2023/08/07 11:31:51;;;;;;;7.72;2.90;;;;;;;;;;5016501;28;20405;-77
2023/08/07 11:34:18;;;;;;;6.07;2.80;;;;;;;;;;5034530;28;20168;-77
2023/08/07 11:36:44;;;;;;;6.45;2.70;;;;;;;;;;5034491;28;20199;-77
2023/08/07 11:39:11;;;;;;;5.43;2.77;;;;;;;;;;5034353;28;20180;-77
2023/08/07 11:41:37;;;;;;;6.88;3.05;;;;;;;;;;5033188;28;20409;-77
2023/08/07 11:44:03;;;;;;;8.80;2.97;;;;;;;;;;5016864;28;20239;-77
2023/08/07 11:46:29;;;;;;;8.88;3.17;;;;;;;;;;5032750;28;20409;-76
2023/08/07 11:48:56;;;;;;;10.13;3.27;;;;;;;;;;5033421;28;20177;-76
2023/08/07 11:51:22;;;;;;;7.47;3.07;;;;;;;;;;5033572;28;20204;-76
2023/08/07 11:53:48;;;;;;;7.97;2.90;;;;;;;;;;5032984;28;20176;-76
2023/08/07 11:56:15;;;;;;;7.90;3.33;;;;;;;;;;5032901;28;20500;-76
2023/08/07 11:58:47;;;;;;;10.82;3.30;;;;;;;;;;5032716;28;20401;-76
2023/08/07 12:01:14;;;;;;;9.10;2.80;;;;;;;;;;5033290;28;20177;-76
2023/08/07 12:03:42;;;;;;;9.88;3.10;;;;;;;;;;5032996;28;20410;-75
2023/08/07 12:06:09;;;;;;;9.65;3.42;;;;;;;;;;5034320;28;20413;-76
2023/08/07 12:08:38;;;;;;;6.73;2.80;;;;;;;;;;5034264;28;20218;-76
2023/08/07 12:11:05;;;;;;;8.32;3.30;;;;;;;;;;5032391;28;20412;-76
2023/08/07 12:13:34;;;;;;;9.45;3.20;;;;;;;;;;5032575;28;20418;-75
2023/08/07 12:16:01;;;;;;;6.55;2.92;;;;;;;;;;5032623;28;20412;-75
2023/08/07 12:18:27;;;;;;;7.73;2.93;;;;;;;;;;5033393;28;20172;-76
2023/08/07 12:21:04;;;;;;;6.70;2.60;;;;;;;;;;5049594;28;20177;-76
2023/08/07 12:23:33;;;;;;;7.27;2.97;;;;;;;;;;5049281;28;20182;-76
2023/08/07 12:25:59;;;;;;;11.47;3.20;;;;;;;;;;5049280;28;20216;-76
2023/08/07 12:28:25;;;;;;;11.87;3.20;;;;;;;;;;5049361;28;20204;-75
2023/08/07 12:30:51;;;;;;;7.85;3.20;;;;;;;;;;5032814;28;20429;-76
2023/08/07 12:33:17;;;;;;;7.65;3.08;;;;;;;;;;5048671;28;20409;-76
2023/08/07 12:35:43;;;;;;;7.57;2.83;;;;;;;;;;5032648;28;20176;-76
2023/08/07 12:38:10;;;;;;;9.20;3.10;;;;;;;;;;5056648;22;20242;-80
2023/08/07 12:40:36;;;;;;;6.83;2.70;;;;;;;;;;5016530;28;20185;-80
2023/08/07 12:43:02;;;;;;;7.03;3.03;;;;;;;;;;4999884;28;20284;-76
2023/08/07 12:45:28;;;;;;;7.00;2.73;;;;;;;;;;5016445;28;20184;-76
2023/08/07 12:47:54;;;;;;;9.53;2.90;;;;;;;;;;5015859;28;20199;-76
2023/08/07 12:50:20;;;;;;;6.77;3.20;;;;;;;;;;5015113;28;20565;-76
2023/08/07 12:52:46;;;;;;;8.57;3.10;;;;;;;;;;5015244;28;20445;-76
2023/08/07 12:55:12;;;;;;;8.70;2.87;;;;;;;;;;5016109;28;20497;-76
2023/08/07 12:57:42;;;;;;;11.53;3.17;;;;;;;;;;4998164;28;20217;-76
2023/08/07 13:00:11;;;;;;;6.40;2.90;;;;;;;;;;5033036;28;20488;-76
2023/08/07 13:02:37;;;;;;;5.18;2.60;;;;;;;;;;5015407;28;20405;-75
2023/08/07 13:05:03;;;;;;;7.38;2.90;;;;;;;;;;4998939;28;20431;-76
2023/08/07 13:07:29;;;;;;;5.77;2.33;;;;;;;;;;5036562;28;20184;-75
2023/08/07 13:09:55;;;;;;;9.73;2.83;;;;;;;;;;5002787;28;20401;-75
2023/08/07 13:12:21;;;;;;;3.87;2.70;;;;;;;;;;5003052;28;20184;-76
2023/08/07 13:14:47;;;;;;;8.47;2.80;;;;;;;;;;5019373;28;20275;-75
2023/08/07 13:17:13;;;;;;;6.03;2.87;;;;;;;;;;5002480;28;20300;-75
2023/08/07 13:19:39;;;;;;;5.90;2.50;;;;;;;;;;5002872;28;20213;-75
2023/08/07 13:22:05;;;;;;;6.70;2.60;;;;;;;;;;5019105;28;20183;-75
2023/08/07 13:24:31;;;;;;;8.02;2.95;;;;;;;;;;5018298;28;20412;-76
2023/08/07 13:26:57;;;;;;;7.45;3.00;;;;;;;;;;5001797;28;20440;-76
2023/08/07 13:29:24;;;;;;;9.33;2.57;;;;;;;;;;5018981;28;20234;-75
2023/08/07 13:31:50;;;;;;;6.45;2.88;;;;;;;;;;5018274;28;20450;-75
2023/08/07 13:34:16;;;;;;;7.82;2.83;;;;;;;;;;5001689;28;20405;-75
2023/08/07 13:36:42;;;;;;;8.23;2.77;;;;;;;;;;5018514;28;20228;-76
2023/08/07 13:39:08;;;;;;;7.22;2.90;;;;;;;;;;5018091;28;20489;-76
2023/08/07 13:41:35;;;;;;;6.60;2.90;;;;;;;;;;5017965;28;20445;-75
2023/08/07 13:44:01;;;;;;;7.45;3.00;;;;;;;;;;5035205;28;20406;-75
2023/08/07 13:46:27;;;;;;;9.83;2.90;;;;;;;;;;5017632;28;20479;-76
2023/08/07 13:48:54;;;;;;;8.00;3.33;;;;;;;;;;5017599;28;20417;-75
2023/08/07 13:51:20;;;;;;;6.50;2.43;;;;;;;;;;5002355;28;20195;-80
2023/08/07 13:53:46;;;;;;;5.45;2.75;;;;;;;;;;5035908;28;20444;-76
2023/08/07 13:56:12;;;;;;;7.40;2.70;;;;;;;;;;5018156;28;20417;-76
2023/08/07 13:58:42;;;;;;;5.90;2.87;;;;;;;;;;5018432;28;20192;-76
2023/08/07 14:01:08;;;;;;;6.30;2.58;;;;;;;;;;5001798;28;20417;-76
2023/08/07 14:03:34;;;;;;;8.00;2.70;;;;;;;;;;5017866;28;20485;-76
2023/08/07 14:06:00;;;;;;;6.10;2.50;;;;;;;;;;5035569;28;20416;-75
2023/08/07 14:08:26;;;;;;;5.60;2.27;;;;;;;;;;5018296;28;20187;-77
2023/08/07 14:10:52;;;;;;;6.65;2.45;;;;;;;;;;5001591;28;20409;-75
2023/08/07 14:13:19;;;;;;;5.18;2.42;;;;;;;;;;5001384;28;20433;-75
2023/08/07 14:15:45;;;;;;;7.40;2.80;;;;;;;;;;5013143;28;20464;-75
2023/08/07 14:18:13;;;;;;;5.68;2.22;;;;;;;;;;4998357;28;20529;-76
2023/08/07 14:20:39;;;;;;;7.53;2.20;;;;;;;;;;5014728;28;20189;-75
2023/08/07 14:23:05;;;;;;;6.75;2.30;;;;;;;;;;5014340;28;20419;-76
2023/08/07 14:25:31;;;;;;;3.97;2.17;;;;;;;;;;4998532;28;20244;-75
2023/08/07 14:27:57;;;;;;;6.63;2.50;;;;;;;;;;4998231;28;20196;-76
2023/08/07 14:30:23;;;;;;;5.90;2.17;;;;;;;;;;4998293;28;20320;-75
2023/08/07 14:32:49;;;;;;;6.23;2.00;;;;;;;;;;5014792;28;20192;-79